Time;durP1;ratioP1;P1;durP2;ratioP2;P2;SDS_P1;SDS_P2;PMS_P1;PMS_P2;Temp;Humidity;BMP_temperature;BMP_pressure;BME280_temperature;BME280_humidity;BME280_pressure;Samples;Min_cycle;Max_cycle;Signal;HPM_P1;HPM_P2
2022/07/08 00:01:10;;;;;;;10.30;2.45;;;17.30;88.90;;;16.44;62.00;98367.47;4989735;28;20997;-73
2022/07/08 00:03:36;;;;;;;9.48;2.13;;;17.20;88.50;;;16.40;62.59;98357.56;4990566;28;20403;-73
2022/07/08 00:06:02;;;;;;;9.88;2.50;;;17.20;89.10;;;16.36;62.21;98362.63;4982661;28;20825;-73
2022/07/08 00:08:30;;;;;;;8.23;2.20;;;17.10;88.70;;;16.33;62.52;98367.69;4984489;28;20423;-73
2022/07/08 00:10:56;;;;;;;7.57;1.98;;;17.10;88.90;;;16.27;62.64;98372.22;4986966;28;20403;-73
2022/07/08 00:13:22;;;;;;;7.53;2.20;;;17.10;88.70;;;16.21;62.69;98371.41;4982671;28;20500;-73
2022/07/08 00:15:48;;;;;;;8.85;2.35;;;17.00;89.00;;;16.18;62.84;98368.47;4982489;28;20502;-73
2022/07/08 00:18:14;;;;;;;12.75;2.63;;;16.90;89.50;;;16.13;63.00;98379.13;4990358;28;20417;-73
2022/07/08 00:20:40;;;;;;;7.13;2.30;;;16.90;89.50;;;16.05;62.95;98384.97;4990285;28;20833;-73
2022/07/08 00:23:06;;;;;;;11.50;2.50;;;16.90;89.60;;;16.05;62.67;98387.66;4990699;28;20409;-72
2022/07/08 00:25:33;;;;;;;7.38;2.10;;;16.80;89.60;;;15.95;63.12;98383.06;4990572;28;20485;-73
2022/07/08 00:27:59;;;;;;;9.73;2.50;;;16.80;89.50;;;15.92;63.07;98386.28;4990548;28;20509;-72
2022/07/08 00:30:25;;;;;;;5.80;2.00;;;16.70;89.80;;;15.88;63.34;98391.31;4990014;28;20510;-72
2022/07/08 00:32:51;;;;;;;8.63;2.33;;;16.70;89.80;;;15.83;63.23;98390.50;4990411;28;20489;-72
2022/07/08 00:35:17;;;;;;;6.22;2.22;;;16.60;89.70;;;15.75;63.45;98396.34;4990680;28;20410;-72
2022/07/08 00:37:43;;;;;;;7.57;2.55;;;16.60;90.00;;;15.68;63.38;98398.44;4990537;28;20406;-73
2022/07/08 00:40:11;;;;;;;11.40;3.28;;;16.50;90.00;;;15.67;62.53;98396.81;4989728;28;20409;-72
2022/07/08 00:42:39;;;;;;;6.80;2.47;;;16.50;89.30;;;15.57;62.44;98399.41;4990492;28;20395;-73
2022/07/08 00:45:06;;;;;;;8.65;3.15;;;16.40;88.30;;;15.54;61.36;98391.94;4990423;28;20836;-73
2022/07/08 00:47:32;;;;;;;10.52;2.78;;;16.40;86.70;;;15.48;61.68;98391.91;4989301;28;20410;-73
2022/07/08 00:49:58;;;;;;;10.40;2.97;;;16.30;86.80;;;15.37;62.10;98398.22;4989865;28;20982;-73
2022/07/08 00:52:25;;;;;;;7.70;3.10;;;16.20;87.10;;;15.35;61.87;98407.53;4990070;28;20505;-73
2022/07/08 00:54:51;;;;;;;9.40;3.17;;;16.20;87.20;;;15.29;61.79;98403.22;4990456;28;20880;-72
2022/07/08 00:57:17;;;;;;;8.80;2.67;;;16.10;86.80;;;15.22;61.84;98414.13;4990490;28;20409;-72
2022/07/08 00:59:45;;;;;;;8.97;2.90;;;16.10;86.70;;;15.15;62.36;98408.19;4989742;28;20821;-73
2022/07/08 01:02:11;;;;;;;9.98;2.97;;;16.00;87.00;;;15.14;62.09;98416.44;4990216;28;20421;-73
2022/07/08 01:04:37;;;;;;;6.22;2.90;;;16.00;87.00;;;15.11;62.08;98421.22;4990349;28;20896;-73
2022/07/08 01:07:05;;;;;;;11.90;3.45;;;15.90;87.00;;;15.07;61.98;98420.13;4990274;28;20406;-72
2022/07/08 01:09:31;;;;;;;13.23;3.35;;;15.90;86.90;;;15.09;61.77;98419.88;4989729;28;20819;-73
2022/07/08 01:11:59;;;;;;;5.85;2.50;;;15.90;86.80;;;15.10;61.52;98414.31;4990083;28;20426;-71
2022/07/08 01:14:25;;;;;;;8.73;2.92;;;15.90;86.10;;;15.09;61.41;98420.69;4990699;28;20414;-72
2022/07/08 01:16:52;;;;;;;8.02;3.30;;;15.90;85.80;;;15.14;60.24;98405.78;4994140;28;20497;-71
2022/07/08 01:19:18;;;;;;;8.75;2.88;;;16.00;84.50;;;15.10;60.26;98413.50;4993462;28;20440;-71
2022/07/08 01:21:46;;;;;;;12.73;3.23;;;15.90;83.90;;;15.07;59.92;98409.47;4993663;28;20402;-71
2022/07/08 01:24:11;;;;;;;8.90;3.10;;;15.90;84.10;;;15.08;60.29;98421.75;4994115;28;20405;-72
2022/07/08 01:26:38;;;;;;;11.05;2.90;;;15.90;83.90;;;15.07;59.44;98420.13;4993903;28;20859;-72
2022/07/08 01:29:03;;;;;;;8.25;2.70;;;15.90;82.60;;;15.04;59.41;98425.16;4993498;28;20749;-72
2022/07/08 01:31:29;;;;;;;7.88;2.90;;;15.90;82.70;;;15.02;59.46;98417.44;4993225;28;20426;-72
2022/07/08 01:33:55;;;;;;;7.63;2.50;;;15.80;82.60;;;15.00;59.32;98419.53;4993568;28;20819;-72
2022/07/08 01:36:21;;;;;;;11.18;2.72;;;15.80;82.30;;;14.97;59.29;98417.38;4993767;28;20410;-72
2022/07/08 01:38:48;;;;;;;13.77;3.03;;;15.80;82.20;;;14.92;59.54;98421.88;4993293;28;20517;-72
2022/07/08 01:41:14;;;;;;;8.93;2.60;;;15.70;82.10;;;14.85;59.46;98421.28;4993381;28;20406;-72
2022/07/08 01:43:40;;;;;;;9.57;3.13;;;15.70;82.30;;;14.75;60.02;98421.97;4993570;28;20405;-72
2022/07/08 01:46:06;;;;;;;7.78;2.38;;;15.60;82.60;;;14.67;60.37;98427.75;4993424;28;20410;-72
2022/07/08 01:48:32;;;;;;;10.57;3.03;;;15.60;83.10;;;14.59;60.81;98428.19;4993061;28;20406;-72
2022/07/08 01:50:58;;;;;;;9.48;2.90;;;15.50;83.60;;;14.54;60.70;98422.84;4993077;28;20468;-72
2022/07/08 01:53:24;;;;;;;8.85;2.75;;;15.40;83.50;;;14.52;60.88;98422.28;4993442;28;20422;-72
2022/07/08 01:55:51;;;;;;;10.27;2.93;;;15.40;84.00;;;14.44;60.98;98428.03;4993430;28;20406;-72
2022/07/08 01:58:17;;;;;;;8.32;2.90;;;15.30;84.00;;;14.38;61.29;98427.19;4992838;28;20403;-73
2022/07/08 02:00:43;;;;;;;11.00;3.00;;;15.30;84.40;;;14.33;61.83;98429.78;4992828;28;20413;-73
2022/07/08 02:03:09;;;;;;;6.77;2.60;;;15.20;84.90;;;14.30;61.63;98435.59;4993335;28;20413;-72
2022/07/08 02:05:37;;;;;;;8.50;2.70;;;15.20;85.10;;;14.24;62.15;98431.25;4993134;28;20429;-72
2022/07/08 02:08:04;;;;;;;11.10;3.00;;;15.10;85.40;;;14.18;62.13;98435.72;4992631;28;20753;-72
2022/07/08 02:12:18;;;;;;;10.85;3.13;;;15.10;85.80;;;14.20;62.50;98446.94;4992761;28;20465;-72
2022/07/08 02:13:18;;;;;;;11.27;3.03;;;15.10;86.20;;;14.15;62.14;98438.88;4992998;28;20912;-72
2022/07/08 02:15:44;;;;;;;14.27;3.80;;;15.00;86.00;;;14.12;62.49;98441.25;4992901;28;20420;-73
2022/07/08 02:18:10;;;;;;;10.75;2.90;;;15.00;86.30;;;14.09;62.75;98445.19;4992475;28;20413;-73
2022/07/08 02:20:36;;;;;;;10.70;3.08;;;15.00;86.80;;;14.07;62.76;98441.97;4992775;28;20410;-73
2022/07/08 02:23:02;;;;;;;12.52;3.00;;;15.00;87.10;;;14.04;62.92;98441.69;4992841;28;20417;-73
2022/07/08 02:25:28;;;;;;;7.90;3.13;;;15.00;87.20;;;14.00;63.20;98446.69;4992284;28;20497;-73
2022/07/08 02:27:54;;;;;;;13.00;3.77;;;14.90;87.60;;;14.01;63.29;98453.63;4992162;28;20799;-73
2022/07/08 02:30:21;;;;;;;11.30;3.28;;;14.90;87.80;;;13.97;63.37;98449.84;4992001;28;20413;-73
2022/07/08 02:32:47;;;;;;;10.65;3.08;;;14.90;87.80;;;13.97;63.50;98443.72;4992513;28;20458;-73
2022/07/08 02:35:13;;;;;;;11.47;3.13;;;14.90;88.00;;;13.95;63.59;98449.28;4992742;28;20406;-73
2022/07/08 02:37:39;;;;;;;9.43;2.63;;;14.80;88.20;;;13.90;63.76;98444.72;4992664;28;20796;-73
2022/07/08 02:40:06;;;;;;;8.07;2.70;;;14.80;88.60;;;13.86;63.92;98446.22;4991578;28;20405;-73
2022/07/08 02:42:32;;;;;;;11.25;2.92;;;14.80;88.90;;;13.85;64.04;98441.16;4992438;28;20420;-73
2022/07/08 02:44:58;;;;;;;9.77;3.08;;;14.70;89.10;;;13.81;64.14;98443.50;4992436;28;20410;-73
2022/07/08 02:47:25;;;;;;;11.80;3.33;;;14.70;89.20;;;13.79;64.06;98452.78;4992514;28;20485;-73
2022/07/08 02:49:51;;;;;;;9.07;2.75;;;14.70;89.20;;;13.75;64.01;98444.50;4991782;28;20406;-73
2022/07/08 02:52:18;;;;;;;12.82;3.70;;;14.70;89.30;;;13.74;64.33;98458.03;4992093;28;20425;-73
2022/07/08 02:54:44;;;;;;;8.23;2.75;;;14.60;89.60;;;13.75;64.47;98462.31;4992230;28;20442;-73
2022/07/08 02:57:10;;;;;;;7.97;2.88;;;14.70;90.10;;;13.72;64.65;98465.47;4992430;28;20512;-73
2022/07/08 02:59:35;;;;;;;18.85;3.35;;;14.60;90.10;;;13.71;64.89;98461.19;4991602;28;20414;-73
2022/07/08 03:02:02;;;;;;;10.93;3.20;;;14.60;90.20;;;13.75;64.79;98471.13;4991942;28;20406;-73
2022/07/08 03:04:29;;;;;;;7.88;2.70;;;14.60;90.30;;;13.77;64.80;98466.34;4992108;28;20413;-73
2022/07/08 03:06:55;;;;;;;9.30;2.85;;;14.60;90.40;;;13.77;64.75;98468.19;4992354;28;20461;-72
2022/07/08 03:09:21;;;;;;;8.75;2.63;;;14.60;90.30;;;13.78;64.66;98472.47;4991461;28;20411;-73
2022/07/08 03:11:47;;;;;;;8.55;2.70;;;14.70;90.70;;;13.81;64.38;98477.31;4991688;28;20509;-73
2022/07/08 03:14:13;;;;;;;9.00;2.80;;;14.70;90.30;;;13.83;64.62;98478.66;4991906;28;20409;-73
2022/07/08 03:16:39;;;;;;;11.05;3.00;;;14.70;90.30;;;13.84;64.57;98487.44;4991907;28;20402;-73
2022/07/08 03:19:05;;;;;;;13.73;3.25;;;14.70;90.30;;;13.86;64.56;98490.66;4991151;28;20413;-73
2022/07/08 03:21:32;;;;;;;9.40;2.92;;;14.70;90.30;;;13.82;64.69;98490.38;4991886;28;20406;-72
2022/07/08 03:23:58;;;;;;;9.10;2.70;;;14.70;90.40;;;13.84;64.79;98498.09;4991742;28;20403;-72
2022/07/08 03:26:24;;;;;;;8.13;2.90;;;14.70;90.40;;;13.86;64.69;98496.81;4991933;28;20422;-71
2022/07/08 03:28:50;;;;;;;9.00;2.67;;;14.70;90.50;;;13.83;64.44;98505.25;4991106;28;20413;-72
2022/07/08 03:31:16;;;;;;;6.97;2.53;;;14.70;90.30;;;13.82;64.64;98503.69;4991118;28;20501;-69
2022/07/08 03:33:42;;;;;;;10.07;2.70;;;14.70;90.70;;;13.81;64.75;98502.06;4987920;23;20444;-80
2022/07/08 03:36:09;;;;;;;8.52;2.90;;;14.70;90.30;;;13.80;64.41;98505.78;4972313;28;20404;-80
2022/07/08 03:38:36;;;;;;;5.75;2.70;;;14.70;90.30;;;13.76;64.39;98504.63;4971401;28;20916;-80
2022/07/08 03:41:20;;;;;;;6.68;2.42;;;14.70;90.20;;;13.73;64.99;98504.31;4954475;28;20932;-80
2022/07/08 03:43:48;;;;;;;7.83;2.63;;;14.60;90.40;;;13.77;64.48;98516.09;4952811;29;20405;-80
2022/07/08 03:46:14;;;;;;;8.93;2.63;;;14.60;90.20;;;13.75;64.64;98518.22;4954124;29;20552;-80
2022/07/08 03:48:40;;;;;;;9.73;3.15;;;14.60;90.30;;;13.72;64.61;98522.16;4948175;28;20410;-80
2022/07/08 03:51:06;;;;;;;9.37;3.17;;;14.60;90.30;;;13.70;64.88;98518.91;4950158;28;20429;-80
2022/07/08 03:53:32;;;;;;;7.72;2.53;;;14.60;90.40;;;13.70;64.61;98526.09;4948775;28;20418;-80
2022/07/08 03:56:00;;;;;;;11.65;2.90;;;14.60;90.50;;;13.67;64.44;98522.06;4940009;28;20431;-80
2022/07/08 03:58:26;;;;;;;9.95;3.05;;;14.60;90.40;;;13.67;64.96;98531.91;4959369;28;20414;-80
2022/07/08 04:00:52;;;;;;;10.40;3.08;;;14.60;90.50;;;13.67;64.82;98531.91;4957341;28;20410;-80
2022/07/08 04:03:18;;;;;;;6.85;2.40;;;14.60;90.50;;;13.66;64.78;98530.31;4952458;29;20776;-80
2022/07/08 04:05:44;;;;;;;9.73;2.87;;;14.60;90.60;;;13.66;65.01;98538.28;4951857;29;20424;-80
2022/07/08 04:08:10;;;;;;;7.78;2.30;;;14.60;90.50;;;13.64;65.02;98541.19;4952097;29;20406;-80
2022/07/08 04:10:36;;;;;;;8.07;2.60;;;14.50;90.60;;;13.63;65.32;98536.91;4958129;28;20415;-83
2022/07/08 04:13:03;;;;;;;8.40;2.70;;;14.50;90.80;;;13.64;65.16;98535.84;4961173;28;20428;-83
2022/07/08 04:15:29;;;;;;;7.40;2.50;;;14.50;90.80;;;13.62;65.07;98529.97;4948752;28;21124;-84
2022/07/08 04:17:55;;;;;;;8.05;2.88;;;14.50;90.90;;;13.59;65.17;98535.78;4971760;28;20416;-83
2022/07/08 04:20:21;;;;;;;9.98;3.05;;;14.50;90.90;;;13.55;65.29;98535.44;4970761;28;20411;-78
2022/07/08 04:22:47;;;;;;;8.80;2.50;;;14.40;91.00;;;13.54;65.66;98541.81;4971386;28;20436;-79
2022/07/08 04:25:13;;;;;;;6.88;2.33;;;14.50;91.20;;;13.51;65.28;98552.94;4971614;28;20408;-75
2022/07/08 04:27:39;;;;;;;8.52;2.55;;;14.40;91.10;;;13.50;65.10;98540.69;4971363;28;21040;-76
2022/07/08 04:30:08;;;;;;;9.37;2.60;;;14.40;90.90;;;13.49;65.50;98535.63;4970554;28;20810;-76
2022/07/08 04:32:34;;;;;;;9.02;2.50;;;14.40;91.10;;;13.47;65.67;98545.69;4971270;28;20438;-76
2022/07/08 04:35:00;;;;;;;7.83;2.70;;;14.40;91.30;;;13.44;65.86;98540.84;4955769;28;20420;-76
2022/07/08 04:37:26;;;;;;;9.13;2.80;;;14.30;91.30;;;13.44;65.51;98541.66;4951978;28;20406;-77
2022/07/08 04:39:52;;;;;;;12.00;3.17;;;14.30;91.20;;;13.41;66.00;98534.16;4949852;28;20418;-77
2022/07/08 04:42:18;;;;;;;10.55;3.13;;;14.30;91.40;;;13.43;65.89;98542.72;4951555;28;20761;-78
2022/07/08 04:44:45;;;;;;;10.03;2.70;;;14.30;91.50;;;13.44;66.21;98536.34;4951746;29;20493;-77
2022/07/08 04:47:12;;;;;;;9.73;3.00;;;14.40;91.80;;;13.48;66.07;98536.66;4951892;29;20475;-79
2022/07/08 04:49:38;;;;;;;8.80;3.00;;;14.40;91.80;;;13.49;66.19;98540.94;4952327;28;20410;-82
2022/07/08 04:52:08;;;;;;;10.10;2.25;;;14.40;91.80;;;13.51;66.01;98538.84;4954654;28;20489;-78
2022/07/08 04:54:37;;;;;;;8.05;2.88;;;14.40;91.80;;;13.56;66.02;98536.25;4944375;28;20412;-77
2022/07/08 04:57:04;;;;;;;9.02;2.88;;;14.50;91.90;;;13.60;66.00;98539.25;4973005;28;20401;-77
2022/07/08 04:59:30;;;;;;;9.75;2.90;;;14.50;91.80;;;13.66;66.21;98541.75;4954641;29;20619;-78
2022/07/08 05:01:56;;;;;;;5.80;2.25;;;14.60;91.90;;;13.73;66.10;98545.06;4954798;29;20410;-82
2022/07/08 05:04:23;;;;;;;10.00;3.27;;;14.60;91.90;;;13.80;66.02;98553.69;4954628;29;20422;-79
2022/07/08 05:06:49;;;;;;;9.77;2.80;;;14.70;91.80;;;13.87;64.30;98550.84;4952878;29;20413;-78
2022/07/08 05:09:15;;;;;;;8.75;2.78;;;14.70;90.70;;;13.93;64.02;98552.53;4954548;29;20875;-78
2022/07/08 05:11:41;;;;;;;7.03;2.30;;;14.80;90.40;;;14.02;64.65;98542.28;4951715;29;20439;-77
2022/07/08 05:14:12;;;;;;;10.27;2.90;;;14.90;90.70;;;14.12;64.73;98542.44;4960288;28;20429;-78
2022/07/08 05:16:38;;;;;;;8.60;2.70;;;15.00;90.90;;;14.19;64.00;98543.06;4977358;28;20433;-78
2022/07/08 05:19:04;;;;;;;10.45;2.42;;;15.10;90.50;;;14.29;64.20;98538.66;4953465;29;20883;-78
2022/07/08 05:21:32;;;;;;;9.88;2.83;;;15.10;90.30;;;14.33;64.09;98542.47;4953603;29;20410;-77
2022/07/08 05:23:58;;;;;;;7.80;2.50;;;15.20;90.30;;;14.36;62.70;98549.13;4955176;29;20442;-78
2022/07/08 05:26:24;;;;;;;7.15;2.53;;;15.30;88.60;;;14.37;62.18;98544.59;4955149;29;20553;-77
2022/07/08 05:28:50;;;;;;;12.80;3.20;;;15.30;87.90;;;14.46;62.93;98543.16;4954851;29;20406;-78
2022/07/08 05:31:16;;;;;;;9.10;2.63;;;15.30;88.60;;;14.49;62.84;98548.81;4954929;29;20768;-77
2022/07/08 05:33:42;;;;;;;7.50;1.98;;;15.40;88.30;;;14.55;62.86;98549.69;4954912;29;20480;-78
2022/07/08 05:36:09;;;;;;;9.88;2.58;;;15.40;88.40;;;14.58;63.20;98551.84;4955094;29;20421;-78
2022/07/08 05:38:37;;;;;;;9.73;2.67;;;15.40;88.70;;;14.65;62.64;98558.63;4956849;28;20420;-77
2022/07/08 05:41:03;;;;;;;7.28;2.35;;;15.50;88.20;;;14.68;62.37;98559.97;4965938;28;20916;-77
2022/07/08 05:43:29;;;;;;;6.22;2.30;;;15.50;87.50;;;14.73;62.71;98565.38;4974115;28;20407;-78
2022/07/08 05:45:55;;;;;;;8.57;2.42;;;15.60;87.90;;;14.79;62.89;98560.91;4974266;28;20408;-77
2022/07/08 05:48:21;;;;;;;8.73;2.53;;;15.60;88.20;;;14.87;62.66;98577.25;4973737;28;20465;-78
2022/07/08 05:50:48;;;;;;;9.63;2.63;;;15.70;88.60;;;14.91;62.41;98577.56;4956289;28;20759;-77
2022/07/08 05:53:16;;;;;;;8.45;2.35;;;15.70;87.40;;;14.92;61.97;98581.84;4973979;28;20407;-78
2022/07/08 05:55:44;;;;;;;9.93;2.47;;;15.80;86.90;;;14.88;61.62;98584.22;4973672;28;20890;-77
2022/07/08 05:58:10;;;;;;;9.48;2.55;;;15.70;86.10;;;14.87;61.48;98579.94;4972442;28;20404;-77
2022/07/08 06:00:36;;;;;;;9.65;2.47;;;15.70;86.00;;;14.85;60.19;98582.03;4955902;28;20408;-75
2022/07/08 06:03:04;;;;;;;8.00;2.38;;;15.70;84.00;;;14.79;61.08;98577.69;4955067;28;20414;-76
2022/07/08 06:05:31;;;;;;;9.15;2.30;;;15.60;84.50;;;14.77;61.79;98576.31;4962383;28;20410;-76
2022/07/08 06:07:57;;;;;;;13.25;3.28;;;15.60;85.80;;;14.77;61.82;98581.66;4969901;28;20491;-76
2022/07/08 06:10:23;;;;;;;9.43;2.47;;;15.60;86.40;;;14.74;62.31;98590.94;4954750;28;20638;-76
2022/07/08 06:12:51;;;;;;;7.18;2.45;;;15.60;86.80;;;14.75;62.48;98591.75;4949261;28;20429;-77
2022/07/08 06:15:17;;;;;;;11.20;2.90;;;15.60;87.10;;;14.77;62.75;98590.47;4960961;28;20811;-76
2022/07/08 06:17:43;;;;;;;9.55;2.45;;;15.60;87.80;;;14.83;62.12;98591.31;4969673;28;20498;-76
2022/07/08 06:20:09;;;;;;;9.27;2.60;;;15.60;86.80;;;14.81;61.68;98591.56;4972708;28;20499;-76
2022/07/08 06:22:35;;;;;;;10.20;2.95;;;15.60;86.30;;;14.82;59.84;98587.03;4973501;28;20408;-75
2022/07/08 06:25:01;;;;;;;11.93;2.70;;;15.60;83.60;;;14.86;59.92;98596.16;4960556;28;20417;-76
2022/07/08 06:27:27;;;;;;;8.32;2.40;;;15.70;83.50;;;14.91;59.90;98593.53;4953768;29;20414;-77
2022/07/08 06:29:55;;;;;;;5.03;2.13;;;15.70;83.40;;;14.96;59.12;98599.75;4952676;29;20438;-78
2022/07/08 06:32:20;;;;;;;6.75;1.90;;;15.70;82.60;;;15.05;59.26;98589.44;4952885;29;20428;-81
2022/07/08 06:34:46;;;;;;;9.35;2.35;;;15.80;82.60;;;15.18;59.42;98590.94;4954172;29;20917;-82
2022/07/08 06:37:12;;;;;;;6.25;1.90;;;15.90;82.60;;;15.34;59.31;98593.47;4954337;29;20752;-82
2022/07/08 06:39:39;;;;;;;8.95;2.20;;;16.10;82.70;;;15.52;58.36;98602.19;4953147;29;20824;-79
2022/07/08 06:42:05;;;;;;;5.57;1.70;;;16.20;81.60;;;15.66;58.00;98604.22;4937916;28;21549;-82
2022/07/08 06:44:31;;;;;;;6.13;1.90;;;16.40;80.60;;;15.74;57.10;98603.75;4944513;28;20410;-82
2022/07/08 06:46:59;;;;;;;7.93;1.80;;;16.50;79.50;;;15.80;57.18;98600.06;4952727;29;20696;-85
2022/07/08 06:49:25;;;;;;;5.65;1.70;;;16.60;79.30;;;15.82;57.21;98605.97;4950798;29;20418;-84
2022/07/08 06:51:51;;;;;;;10.15;2.20;;;16.60;78.90;;;15.79;56.50;98613.66;4952606;29;20414;-85
2022/07/08 06:54:37;;;;;;;6.22;2.00;;;16.60;78.00;;;15.78;56.36;98614.75;4953316;29;20514;-82
2022/07/08 06:57:07;;;;;;;8.40;2.10;;;16.50;77.50;;;15.75;54.21;98612.56;4935342;28;20975;-80
2022/07/08 06:59:33;;;;;;;5.35;1.70;;;16.50;74.90;;;15.75;54.62;98613.38;4937405;28;20424;-85
2022/07/08 07:02:00;;;;;;;3.42;1.60;;;16.50;75.20;;;15.78;55.31;98615.56;4954398;28;20421;-82
2022/07/08 07:04:26;;;;;;;8.27;2.20;;;16.50;76.00;;;15.86;55.57;98617.72;4951905;29;20420;-85
2022/07/08 07:06:53;;;;;;;9.27;2.00;;;16.60;76.50;;;15.86;54.16;98615.06;4952107;29;20429;-82
2022/07/08 07:09:18;;;;;;;3.70;1.65;;;16.60;74.80;;;15.90;53.75;98610.03;4951230;29;20414;-76
2022/07/08 07:11:44;;;;;;;6.60;1.67;;;16.60;73.90;;;15.92;54.16;98615.13;4951129;28;20422;-79
2022/07/08 07:14:11;;;;;;;3.80;1.50;;;16.70;74.70;;;15.96;54.01;98622.34;4950387;28;20422;-79
2022/07/08 07:16:37;;;;;;;4.70;1.52;;;16.70;74.00;;;15.93;53.62;98625.56;4958916;28;20860;-83
2022/07/08 07:19:04;;;;;;;6.97;2.57;;;16.70;73.50;;;15.93;52.37;98619.41;4961281;28;20445;-78
2022/07/08 07:21:30;;;;;;;6.43;2.40;;;16.70;71.80;;;15.90;53.59;98620.72;4963466;28;20444;-80
2022/07/08 07:23:56;;;;;;;7.35;2.00;;;16.70;72.90;;;15.82;53.90;98630.00;4947699;28;20982;-78
2022/07/08 07:26:22;;;;;;;6.75;2.00;;;16.60;73.10;;;15.79;54.12;98629.69;4963307;28;20412;-79
2022/07/08 07:28:48;;;;;;;6.47;1.70;;;16.60;73.70;;;15.78;53.07;98630.78;4961259;28;20417;-78
2022/07/08 07:31:14;;;;;;;4.88;1.50;;;16.60;72.80;;;15.84;53.38;98627.88;4951365;29;20642;-79
2022/07/08 07:33:40;;;;;;;4.25;1.50;;;16.60;72.90;;;15.91;53.84;98626.84;4950579;29;20887;-79
2022/07/08 07:36:08;;;;;;;4.28;1.40;;;16.60;73.30;;;16.03;53.55;98636.28;4951529;29;20430;-77
2022/07/08 07:38:34;;;;;;;7.38;1.90;;;16.80;73.10;;;16.14;54.08;98635.31;4947436;28;20433;-79
2022/07/08 07:41:00;;;;;;;3.73;1.30;;;16.80;73.50;;;16.25;54.04;98634.31;4947215;28;20842;-80
2022/07/08 07:43:26;;;;;;;4.78;1.80;;;16.90;73.70;;;16.39;53.85;98634.69;4946407;28;20430;-79
2022/07/08 07:45:52;;;;;;;6.97;1.95;;;17.10;73.60;;;16.50;53.27;98635.56;4954838;28;20428;-80
2022/07/08 07:48:18;;;;;;;6.70;1.52;;;17.20;72.80;;;16.55;53.20;98627.56;4955176;28;20413;-83
2022/07/08 07:50:44;;;;;;;6.15;1.50;;;17.30;72.50;;;16.59;52.72;98634.00;4954444;28;20948;-81
2022/07/08 07:53:12;;;;;;;5.83;1.47;;;17.30;71.90;;;16.58;52.93;98630.53;4960755;28;20497;-80
2022/07/08 07:55:38;;;;;;;5.45;1.30;;;17.30;71.90;;;16.67;52.96;98640.75;4965516;28;20966;-80
2022/07/08 07:58:04;;;;;;;5.10;1.65;;;17.40;72.20;;;16.75;52.65;98629.56;4969848;28;20412;-80
2022/07/08 08:00:30;;;;;;;6.10;1.50;;;17.40;71.60;;;16.83;51.49;98629.09;4970140;28;20947;-82
2022/07/08 08:02:56;;;;;;;5.40;1.30;;;17.50;70.60;;;16.91;51.69;98623.25;4949483;28;20419;-82
2022/07/08 08:05:23;;;;;;;4.88;1.60;;;17.60;70.60;;;16.96;49.68;98637.44;4959044;28;20421;-81
2022/07/08 08:07:48;;;;;;;10.37;1.80;;;17.70;69.10;;;17.02;48.35;98632.91;4950177;28;20574;-85
2022/07/08 08:10:16;;;;;;;4.93;1.52;;;17.80;66.50;;;17.27;48.67;98632.19;4959650;28;20422;-81
2022/07/08 08:12:42;;;;;;;6.80;1.45;;;17.90;66.80;;;17.33;47.96;98634.59;4955044;28;20490;-82
2022/07/08 08:15:09;;;;;;;5.18;1.48;;;18.10;65.30;;;17.28;48.12;98639.16;4969556;28;20416;-82
2022/07/08 08:17:36;;;;;;;10.75;2.15;;;18.00;65.50;;;17.20;47.31;98635.13;4970171;28;20499;-82
2022/07/08 08:20:03;;;;;;;7.43;1.90;;;18.00;64.40;;;17.18;46.59;98639.91;4969385;28;20416;-83
2022/07/08 08:22:29;;;;;;;3.85;1.27;;;17.90;64.00;;;16.90;47.73;98638.47;4965618;28;20417;-83
2022/07/08 08:24:55;;;;;;;5.03;1.47;;;17.70;64.20;;;16.81;49.78;98642.72;4944735;28;20412;-85
2022/07/08 08:27:23;;;;;;;6.72;1.52;;;17.60;66.40;;;16.73;49.73;98647.75;4963392;28;20420;-85
2022/07/08 08:29:49;;;;;;;4.05;1.45;;;17.50;67.00;;;16.73;50.43;98645.06;4969516;28;20782;-82
2022/07/08 08:32:15;;;;;;;4.90;1.67;;;17.50;67.80;;;16.77;50.67;98644.28;4984566;28;20502;-86
2022/07/08 08:34:41;;;;;;;4.57;1.25;;;17.50;68.60;;;16.90;50.72;98643.03;4952229;28;20431;-82
2022/07/08 08:37:07;;;;;;;4.40;1.40;;;17.60;68.60;;;17.05;50.18;98637.72;4954524;28;20933;-83
2022/07/08 08:39:33;;;;;;;3.70;1.58;;;17.70;68.20;;;17.23;50.15;98634.56;4952305;28;20424;-85
2022/07/08 08:41:59;;;;;;;3.10;1.08;;;17.90;68.30;;;17.53;49.88;98628.47;4950093;28;20424;-79
2022/07/08 08:44:26;;;;;;;4.13;1.15;;;18.10;67.70;;;17.80;49.41;98630.97;4962403;28;20418;-80
2022/07/08 08:46:53;;;;;;;4.18;1.20;;;18.40;67.30;;;18.03;48.29;98632.31;4967117;28;20462;-79
2022/07/08 08:49:20;;;;;;;4.55;1.13;;;18.70;65.90;;;18.21;47.15;98631.75;4969398;28;20902;-83
2022/07/08 08:51:50;;;;;;;4.65;1.70;;;18.90;64.60;;;18.22;46.64;98629.88;4969498;28;20424;-83
2022/07/08 08:54:17;;;;;;;3.22;1.30;;;18.90;63.10;;;18.17;47.11;98628.00;4970354;28;20516;-83
2022/07/08 08:56:44;;;;;;;3.55;1.23;;;18.90;63.70;;;17.94;45.90;98636.59;4966601;28;20416;-83
2022/07/08 08:59:10;;;;;;;5.43;1.45;;;18.70;63.40;;;17.79;46.71;98632.84;4955997;28;20453;-76
2022/07/08 09:01:37;;;;;;;4.47;1.70;;;18.50;62.90;;;17.65;46.73;98633.63;4950215;29;20875;-80
2022/07/08 09:04:07;;;;;;;5.25;1.42;;;18.40;63.10;;;17.57;46.62;98626.09;4950136;29;20406;-81
2022/07/08 09:06:33;;;;;;;5.38;1.52;;;18.30;62.80;;;17.46;47.25;98633.28;4949998;29;20405;-80
2022/07/08 09:08:59;;;;;;;5.73;1.50;;;18.20;63.50;;;17.50;47.72;98626.34;4949238;29;20494;-80
2022/07/08 09:11:27;;;;;;;3.90;1.10;;;18.20;64.30;;;17.66;47.85;98625.34;4949639;28;20432;-84
2022/07/08 09:14:14;;;;;;;5.53;1.50;;;18.30;64.60;;;17.88;47.22;98622.41;4960095;28;20418;-82
2022/07/08 09:17:01;;;;;;;2.55;1.13;;;18.50;63.80;;;18.08;46.84;98621.59;4953974;28;20785;-82
2022/07/08 09:19:27;;;;;;;3.23;1.37;;;18.70;63.40;;;18.34;46.14;98611.66;4937312;29;20814;-76
2022/07/08 09:21:54;;;;;;;3.42;1.20;;;18.90;62.60;;;18.50;46.36;98610.50;4952731;29;20408;-81
2022/07/08 09:24:20;;;;;;;4.35;1.40;;;19.10;62.90;;;18.61;46.44;98614.81;4951107;29;20425;-75
2022/07/08 09:26:46;;;;;;;6.88;1.58;;;19.30;62.70;;;18.67;46.01;98611.03;4952076;29;20409;-80
2022/07/08 09:29:12;;;;;;;6.45;1.80;;;19.30;62.00;;;18.59;43.78;98616.97;4952027;28;20785;-83
2022/07/08 09:31:39;;;;;;;5.15;1.40;;;19.30;59.30;;;18.46;44.52;98618.31;4962926;28;20428;-80
2022/07/08 09:34:11;;;;;;;3.90;1.23;;;19.20;59.70;;;18.54;45.89;98622.31;5037771;22;20421;-74
2022/07/08 09:36:44;;;;;;;6.50;1.60;;;19.20;61.80;;;18.47;45.80;98616.44;5031680;28;20758;-73
2022/07/08 09:39:24;;;;;;;6.82;1.75;;;19.20;61.60;;;18.50;46.53;98619.38;5032273;28;20407;-74
2022/07/08 09:41:50;;;;;;;6.93;1.40;;;19.10;62.50;;;18.59;46.45;98616.97;5029747;28;20419;-72
2022/07/08 09:44:19;;;;;;;6.20;1.70;;;19.20;62.40;;;18.71;46.17;98622.84;5006571;28;20478;-72
2022/07/08 09:46:45;;;;;;;7.50;1.70;;;19.30;62.40;;;18.70;43.13;98615.88;5019837;28;20420;-73
2022/07/08 09:52:07;;;;;;;6.45;1.42;;;19.40;58.80;;;18.88;44.17;98619.81;5080966;28;20950;-74
2022/07/08 09:54:33;;;;;;;6.18;1.40;;;19.50;60.40;;;18.90;43.69;98621.16;5060583;28;20430;-74
2022/07/08 09:57:01;;;;;;;5.20;1.58;;;19.60;59.10;;;18.89;42.40;98614.19;5066800;28;20396;-72
2022/07/08 09:59:27;;;;;;;5.83;2.10;;;19.60;57.20;;;18.85;43.91;98631.91;5060147;28;20417;-74
2022/07/08 10:01:54;;;;;;;6.63;1.70;;;19.50;59.10;;;18.78;45.62;98631.41;5063185;28;20401;-73
2022/07/08 10:04:23;;;;;;;6.03;1.60;;;19.50;60.80;;;18.80;45.72;98626.53;5049620;28;20497;-73
2022/07/08 10:06:50;;;;;;;4.03;1.20;;;19.50;61.20;;;18.94;45.95;98616.81;5060729;28;20426;-73
2022/07/08 10:09:18;;;;;;;3.72;1.50;;;19.50;61.40;;;19.07;45.48;98620.81;5064273;28;21064;-74
2022/07/08 10:11:44;;;;;;;4.32;1.25;;;19.70;61.10;;;19.36;45.32;98625.50;5059920;28;20409;-75
2022/07/08 10:14:10;;;;;;;3.83;1.23;;;19.90;61.10;;;19.50;44.61;98621.94;5059966;28;20488;-73
2022/07/08 10:16:40;;;;;;;9.85;2.10;;;20.10;60.00;;;19.57;44.42;98635.88;5051686;28;20497;-74
2022/07/08 10:19:14;;;;;;;3.73;1.30;;;20.20;59.90;;;19.67;44.47;98622.38;5045872;28;20402;-73